sensor_id;sensor_type;location;lat;lon;timestamp;pressure;altitude;pressure_sealevel;temperature;humidity
33859;BME280;20156;47.486;12.074;2023-03-19T00:01:55;94187.22;;;6.61;100.00
33859;BME280;20156;47.486;12.074;2023-03-19T00:04:22;94169.31;;;6.66;100.00
33859;BME280;20156;47.486;12.074;2023-03-19T00:06:48;94169.13;;;6.61;100.00
33859;BME280;20156;47.486;12.074;2023-03-19T00:09:14;94160.97;;;6.64;100.00
33859;BME280;20156;47.486;12.074;2023-03-19T00:11:40;94150.59;;;6.71;100.00
33859;BME280;20156;47.486;12.074;2023-03-19T00:14:05;94156.59;;;6.64;100.00
33859;BME280;20156;47.486;12.074;2023-03-19T00:16:31;94179.16;;;6.18;100.00
33859;BME280;20156;47.486;12.074;2023-03-19T00:18:56;94148.41;;;6.23;100.00
33859;BME280;20156;47.486;12.074;2023-03-19T00:21:22;94094.22;;;6.54;100.00
33859;BME280;20156;47.486;12.074;2023-03-19T00:23:48;94085.03;;;6.65;100.00
33859;BME280;20156;47.486;12.074;2023-03-19T00:26:13;94102.50;;;6.70;100.00
33859;BME280;20156;47.486;12.074;2023-03-19T00:28:39;94123.75;;;6.72;100.00
33859;BME280;20156;47.486;12.074;2023-03-19T00:31:15;94162.38;;;6.60;100.00
33859;BME280;20156;47.486;12.074;2023-03-19T00:33:41;94201.81;;;6.22;100.00
33859;BME280;20156;47.486;12.074;2023-03-19T00:36:08;94173.41;;;6.16;100.00
33859;BME280;20156;47.486;12.074;2023-03-19T00:38:34;94120.16;;;6.28;100.00
33859;BME280;20156;47.486;12.074;2023-03-19T00:41:03;94095.53;;;6.32;100.00
33859;BME280;20156;47.486;12.074;2023-03-19T00:43:30;94076.03;;;6.36;100.00
33859;BME280;20156;47.486;12.074;2023-03-19T00:45:56;94084.22;;;6.26;100.00
33859;BME280;20156;47.486;12.074;2023-03-19T00:48:22;94079.28;;;6.25;100.00
33859;BME280;20156;47.486;12.074;2023-03-19T00:50:48;94086.44;;;6.16;100.00
33859;BME280;20156;47.486;12.074;2023-03-19T00:53:14;94080.84;;;6.26;100.00
33859;BME280;20156;47.486;12.074;2023-03-19T00:55:40;94067.72;;;6.27;100.00
33859;BME280;20156;47.486;12.074;2023-03-19T00:58:05;94040.44;;;6.38;100.00
33859;BME280;20156;47.486;12.074;2023-03-19T01:00:32;94040.28;;;6.33;100.00
33859;BME280;20156;47.486;12.074;2023-03-19T01:02:58;94040.34;;;6.20;100.00
33859;BME280;20156;47.486;12.074;2023-03-19T01:05:24;94019.88;;;6.25;100.00
33859;BME280;20156;47.486;12.074;2023-03-19T01:07:49;94012.16;;;6.18;100.00
33859;BME280;20156;47.486;12.074;2023-03-19T01:10:18;93998.44;;;6.24;100.00
33859;BME280;20156;47.486;12.074;2023-03-19T01:12:43;93965.78;;;6.37;100.00
33859;BME280;20156;47.486;12.074;2023-03-19T01:15:09;94014.41;;;6.01;100.00
33859;BME280;20156;47.486;12.074;2023-03-19T01:17:35;94044.81;;;5.86;100.00
33859;BME280;20156;47.486;12.074;2023-03-19T01:20:00;94034.72;;;5.78;100.00
33859;BME280;20156;47.486;12.074;2023-03-19T01:22:26;94027.16;;;5.83;100.00
33859;BME280;20156;47.486;12.074;2023-03-19T01:24:52;93989.59;;;6.07;100.00
33859;BME280;20156;47.486;12.074;2023-03-19T01:27:17;93963.81;;;6.32;100.00
33859;BME280;20156;47.486;12.074;2023-03-19T01:29:43;93961.38;;;6.44;100.00
33859;BME280;20156;47.486;12.074;2023-03-19T01:32:08;93998.56;;;6.36;100.00
33859;BME280;20156;47.486;12.074;2023-03-19T01:34:34;93996.97;;;6.35;100.00
33859;BME280;20156;47.486;12.074;2023-03-19T01:36:59;94013.94;;;6.24;100.00
33859;BME280;20156;47.486;12.074;2023-03-19T01:39:25;94013.72;;;6.19;100.00
33859;BME280;20156;47.486;12.074;2023-03-19T01:41:52;93991.09;;;6.21;100.00
33859;BME280;20156;47.486;12.074;2023-03-19T01:46:50;93975.47;;;6.10;100.00
33859;BME280;20156;47.486;12.074;2023-03-19T01:49:17;93985.25;;;5.88;100.00
33859;BME280;20156;47.486;12.074;2023-03-19T01:51:45;93960.63;;;5.98;100.00
33859;BME280;20156;47.486;12.074;2023-03-19T01:54:13;93920.28;;;6.04;100.00
33859;BME280;20156;47.486;12.074;2023-03-19T01:56:41;93974.66;;;5.51;100.00
33859;BME280;20156;47.486;12.074;2023-03-19T01:59:18;93914.19;;;5.85;100.00
33859;BME280;20156;47.486;12.074;2023-03-19T02:01:55;93907.03;;;5.87;100.00
33859;BME280;20156;47.486;12.074;2023-03-19T02:04:22;93900.53;;;5.91;100.00
33859;BME280;20156;47.486;12.074;2023-03-19T02:06:47;93905.47;;;5.93;100.00
33859;BME280;20156;47.486;12.074;2023-03-19T02:09:14;93925.31;;;5.86;100.00
33859;BME280;20156;47.486;12.074;2023-03-19T02:11:42;93933.47;;;5.83;100.00
33859;BME280;20156;47.486;12.074;2023-03-19T02:14:08;93928.13;;;5.91;100.00
33859;BME280;20156;47.486;12.074;2023-03-19T02:16:34;93953.31;;;5.82;100.00
33859;BME280;20156;47.486;12.074;2023-03-19T02:18:59;93984.72;;;5.66;100.00
33859;BME280;20156;47.486;12.074;2023-03-19T02:21:25;94014.13;;;5.52;100.00
33859;BME280;20156;47.486;12.074;2023-03-19T02:24:21;94003.84;;;5.45;100.00
33859;BME280;20156;47.486;12.074;2023-03-19T02:26:50;93984.38;;;5.56;100.00
33859;BME280;20156;47.486;12.074;2023-03-19T02:29:16;93958.53;;;5.69;100.00
33859;BME280;20156;47.486;12.074;2023-03-19T02:31:41;93941.00;;;5.84;100.00
33859;BME280;20156;47.486;12.074;2023-03-19T02:36:57;93938.69;;;6.14;100.00
33859;BME280;20156;47.486;12.074;2023-03-19T02:42:12;93966.16;;;6.09;100.00
33859;BME280;20156;47.486;12.074;2023-03-19T02:44:39;93986.69;;;5.77;100.00
33859;BME280;20156;47.486;12.074;2023-03-19T02:47:04;93962.28;;;5.80;100.00
33859;BME280;20156;47.486;12.074;2023-03-19T02:49:30;93936.44;;;5.93;100.00
33859;BME280;20156;47.486;12.074;2023-03-19T02:51:55;93944.78;;;5.88;100.00
33859;BME280;20156;47.486;12.074;2023-03-19T02:54:21;93947.97;;;5.90;100.00
33859;BME280;20156;47.486;12.074;2023-03-19T02:56:47;93952.72;;;5.93;100.00
33859;BME280;20156;47.486;12.074;2023-03-19T02:59:13;93955.47;;;5.98;100.00
33859;BME280;20156;47.486;12.074;2023-03-19T03:01:38;93981.69;;;5.89;100.00
33859;BME280;20156;47.486;12.074;2023-03-19T03:04:04;94004.97;;;5.76;100.00
33859;BME280;20156;47.486;12.074;2023-03-19T03:06:30;94004.72;;;5.84;100.00
33859;BME280;20156;47.486;12.074;2023-03-19T03:08:56;94025.00;;;5.73;100.00
33859;BME280;20156;47.486;12.074;2023-03-19T03:11:21;94033.78;;;5.59;100.00
33859;BME280;20156;47.486;12.074;2023-03-19T03:13:47;94046.28;;;5.49;100.00
33859;BME280;20156;47.486;12.074;2023-03-19T03:16:12;94054.25;;;5.28;100.00
33859;BME280;20156;47.486;12.074;2023-03-19T03:18:38;94036.78;;;5.43;100.00
33859;BME280;20156;47.486;12.074;2023-03-19T03:21:03;94005.59;;;5.51;100.00
33859;BME280;20156;47.486;12.074;2023-03-19T03:23:29;93979.44;;;5.48;100.00
33859;BME280;20156;47.486;12.074;2023-03-19T03:25:54;93947.88;;;5.52;100.00
33859;BME280;20156;47.486;12.074;2023-03-19T03:28:20;93916.28;;;5.63;100.00
33859;BME280;20156;47.486;12.074;2023-03-19T03:30:45;93903.41;;;5.63;100.00
33859;BME280;20156;47.486;12.074;2023-03-19T03:33:11;93902.88;;;5.48;100.00
33859;BME280;20156;47.486;12.074;2023-03-19T03:35:37;93887.22;;;5.43;100.00
33859;BME280;20156;47.486;12.074;2023-03-19T03:38:03;93846.72;;;5.50;100.00
33859;BME280;20156;47.486;12.074;2023-03-19T03:40:29;93833.81;;;5.57;100.00
33859;BME280;20156;47.486;12.074;2023-03-19T03:42:55;93850.06;;;5.57;100.00
33859;BME280;20156;47.486;12.074;2023-03-19T03:45:20;93868.56;;;5.48;100.00
33859;BME280;20156;47.486;12.074;2023-03-19T03:47:46;93883.81;;;5.56;100.00
33859;BME280;20156;47.486;12.074;2023-03-19T03:50:11;93892.13;;;5.58;100.00
33859;BME280;20156;47.486;12.074;2023-03-19T03:52:38;93924.69;;;5.46;100.00
33859;BME280;20156;47.486;12.074;2023-03-19T03:55:04;93965.22;;;5.25;100.00
33859;BME280;20156;47.486;12.074;2023-03-19T03:57:29;93964.03;;;5.14;100.00
33859;BME280;20156;47.486;12.074;2023-03-19T03:59:55;93955.50;;;5.14;100.00
33859;BME280;20156;47.486;12.074;2023-03-19T04:02:20;93951.16;;;5.14;100.00
33859;BME280;20156;47.486;12.074;2023-03-19T04:04:46;93930.50;;;5.28;100.00
33859;BME280;20156;47.486;12.074;2023-03-19T04:07:11;93918.38;;;5.41;100.00
33859;BME280;20156;47.486;12.074;2023-03-19T04:09:37;93932.66;;;5.31;100.00
33859;BME280;20156;47.486;12.074;2023-03-19T04:12:02;93920.38;;;5.33;100.00
33859;BME280;20156;47.486;12.074;2023-03-19T04:14:28;93926.94;;;5.29;100.00
33859;BME280;20156;47.486;12.074;2023-03-19T04:16:53;93899.53;;;5.41;100.00
33859;BME280;20156;47.486;12.074;2023-03-19T04:19:19;93892.22;;;5.38;100.00
33859;BME280;20156;47.486;12.074;2023-03-19T04:21:45;93903.72;;;5.29;100.00
33859;BME280;20156;47.486;12.074;2023-03-19T04:24:11;93922.00;;;5.14;100.00
33859;BME280;20156;47.486;12.074;2023-03-19T04:26:37;93915.84;;;5.22;100.00
33859;BME280;20156;47.486;12.074;2023-03-19T04:29:03;93914.06;;;5.16;100.00
33859;BME280;20156;47.486;12.074;2023-03-19T04:31:29;93941.44;;;5.03;100.00
33859;BME280;20156;47.486;12.074;2023-03-19T04:33:54;93950.78;;;4.91;100.00
33859;BME280;20156;47.486;12.074;2023-03-19T04:36:20;93925.81;;;5.05;100.00
33859;BME280;20156;47.486;12.074;2023-03-19T04:38:45;93907.75;;;5.11;100.00
33859;BME280;20156;47.486;12.074;2023-03-19T04:41:12;93905.78;;;5.07;100.00
33859;BME280;20156;47.486;12.074;2023-03-19T04:43:38;93931.13;;;5.03;100.00
33859;BME280;20156;47.486;12.074;2023-03-19T04:46:04;93937.50;;;5.01;100.00
33859;BME280;20156;47.486;12.074;2023-03-19T04:48:31;93937.47;;;5.14;100.00
33859;BME280;20156;47.486;12.074;2023-03-19T04:50:56;93943.44;;;5.01;100.00
33859;BME280;20156;47.486;12.074;2023-03-19T04:53:22;93960.31;;;4.77;100.00
33859;BME280;20156;47.486;12.074;2023-03-19T04:55:49;93935.91;;;4.87;100.00
33859;BME280;20156;47.486;12.074;2023-03-19T04:58:14;93904.81;;;4.95;100.00
33859;BME280;20156;47.486;12.074;2023-03-19T05:00:40;93897.69;;;4.83;100.00
33859;BME280;20156;47.486;12.074;2023-03-19T05:03:06;93910.78;;;4.69;100.00
33859;BME280;20156;47.486;12.074;2023-03-19T05:05:31;93926.22;;;4.62;100.00
33859;BME280;20156;47.486;12.074;2023-03-19T05:07:56;93930.59;;;4.62;100.00
33859;BME280;20156;47.486;12.074;2023-03-19T05:10:23;93939.69;;;4.51;100.00
33859;BME280;20156;47.486;12.074;2023-03-19T05:12:49;93932.56;;;4.46;100.00
33859;BME280;20156;47.486;12.074;2023-03-19T05:15:15;93913.16;;;4.57;100.00
33859;BME280;20156;47.486;12.074;2023-03-19T05:17:40;93912.78;;;4.60;100.00
33859;BME280;20156;47.486;12.074;2023-03-19T05:20:07;93901.28;;;4.63;100.00
33859;BME280;20156;47.486;12.074;2023-03-19T05:22:33;93859.03;;;4.83;100.00
33859;BME280;20156;47.486;12.074;2023-03-19T05:24:59;93832.09;;;4.86;100.00
33859;BME280;20156;47.486;12.074;2023-03-19T05:27:24;93844.44;;;4.71;100.00
33859;BME280;20156;47.486;12.074;2023-03-19T05:29:49;93827.94;;;4.85;100.00
33859;BME280;20156;47.486;12.074;2023-03-19T05:32:15;93810.84;;;4.97;100.00
33859;BME280;20156;47.486;12.074;2023-03-19T05:34:40;93806.47;;;5.04;100.00
33859;BME280;20156;47.486;12.074;2023-03-19T05:37:06;93811.41;;;5.12;100.00
33859;BME280;20156;47.486;12.074;2023-03-19T05:39:32;93900.50;;;4.56;100.00
33859;BME280;20156;47.486;12.074;2023-03-19T05:41:58;93922.28;;;4.46;100.00
33859;BME280;20156;47.486;12.074;2023-03-19T05:44:23;93916.13;;;4.61;100.00
33859;BME280;20156;47.486;12.074;2023-03-19T05:46:49;93920.69;;;4.72;100.00
33859;BME280;20156;47.486;12.074;2023-03-19T05:49:14;93926.44;;;4.87;100.00
33859;BME280;20156;47.486;12.074;2023-03-19T05:51:40;93936.72;;;4.87;100.00
33859;BME280;20156;47.486;12.074;2023-03-19T05:54:05;93939.88;;;4.96;100.00
33859;BME280;20156;47.486;12.074;2023-03-19T05:56:31;93927.59;;;4.98;100.00
33859;BME280;20156;47.486;12.074;2023-03-19T05:58:57;93913.72;;;5.05;100.00
33859;BME280;20156;47.486;12.074;2023-03-19T06:01:22;93920.44;;;5.13;100.00
33859;BME280;20156;47.486;12.074;2023-03-19T06:03:48;93938.47;;;5.13;100.00
33859;BME280;20156;47.486;12.074;2023-03-19T06:06:13;93934.88;;;5.14;100.00
33859;BME280;20156;47.486;12.074;2023-03-19T06:08:39;93949.56;;;5.00;100.00
33859;BME280;20156;47.486;12.074;2023-03-19T06:11:05;93971.97;;;4.87;100.00
33859;BME280;20156;47.486;12.074;2023-03-19T06:13:30;93973.16;;;4.97;100.00
33859;BME280;20156;47.486;12.074;2023-03-19T06:15:56;93963.66;;;5.11;100.00
33859;BME280;20156;47.486;12.074;2023-03-19T06:18:21;93973.34;;;5.16;100.00
33859;BME280;20156;47.486;12.074;2023-03-19T06:20:47;93981.50;;;5.06;100.00
33859;BME280;20156;47.486;12.074;2023-03-19T06:23:13;93972.78;;;5.00;100.00
33859;BME280;20156;47.486;12.074;2023-03-19T06:25:38;93968.41;;;5.21;100.00
33859;BME280;20156;47.486;12.074;2023-03-19T06:28:04;93926.25;;;5.53;100.00
33859;BME280;20156;47.486;12.074;2023-03-19T06:30:31;93942.47;;;5.73;100.00
33859;BME280;20156;47.486;12.074;2023-03-19T06:32:56;93961.06;;;5.89;100.00
33859;BME280;20156;47.486;12.074;2023-03-19T06:35:23;93985.47;;;5.93;100.00
33859;BME280;20156;47.486;12.074;2023-03-19T06:37:48;94005.50;;;5.97;100.00
33859;BME280;20156;47.486;12.074;2023-03-19T06:40:14;94023.16;;;6.00;100.00
33859;BME280;20156;47.486;12.074;2023-03-19T06:42:43;94037.44;;;6.10;100.00
33859;BME280;20156;47.486;12.074;2023-03-19T06:45:10;94024.97;;;6.38;100.00
33859;BME280;20156;47.486;12.074;2023-03-19T06:47:35;94052.94;;;6.48;100.00
33859;BME280;20156;47.486;12.074;2023-03-19T06:50:01;94073.53;;;6.61;100.00
33859;BME280;20156;47.486;12.074;2023-03-19T06:52:26;94113.94;;;6.49;100.00
33859;BME280;20156;47.486;12.074;2023-03-19T06:54:51;94110.13;;;6.51;100.00
33859;BME280;20156;47.486;12.074;2023-03-19T06:57:17;94126.16;;;6.73;100.00
33859;BME280;20156;47.486;12.074;2023-03-19T06:59:42;94147.56;;;6.80;100.00
33859;BME280;20156;47.486;12.074;2023-03-19T07:02:11;94174.00;;;6.82;100.00
33859;BME280;20156;47.486;12.074;2023-03-19T07:04:36;94148.19;;;7.14;100.00
33859;BME280;20156;47.486;12.074;2023-03-19T07:07:02;94161.63;;;7.29;100.00
33859;BME280;20156;47.486;12.074;2023-03-19T07:09:30;94184.91;;;7.29;100.00
33859;BME280;20156;47.486;12.074;2023-03-19T07:11:55;94209.84;;;7.17;100.00
33859;BME280;20156;47.486;12.074;2023-03-19T07:14:21;94246.34;;;7.34;100.00
33859;BME280;20156;47.486;12.074;2023-03-19T07:16:46;94290.31;;;7.72;100.00
33859;BME280;20156;47.486;12.074;2023-03-19T07:19:11;94332.50;;;7.79;100.00
33859;BME280;20156;47.486;12.074;2023-03-19T07:21:37;94368.69;;;7.92;100.00
33859;BME280;20156;47.486;12.074;2023-03-19T07:24:02;94417.44;;;8.02;100.00
33859;BME280;20156;47.486;12.074;2023-03-19T07:26:28;94480.50;;;8.21;100.00
33859;BME280;20156;47.486;12.074;2023-03-19T07:28:53;94507.59;;;8.25;100.00
33859;BME280;20156;47.486;12.074;2023-03-19T07:31:19;94523.75;;;8.27;100.00
33859;BME280;20156;47.486;12.074;2023-03-19T07:33:44;94521.94;;;8.27;100.00
33859;BME280;20156;47.486;12.074;2023-03-19T07:36:09;94512.94;;;8.43;100.00
33859;BME280;20156;47.486;12.074;2023-03-19T07:38:35;94533.72;;;8.23;100.00
33859;BME280;20156;47.486;12.074;2023-03-19T07:41:00;94539.09;;;8.22;100.00
33859;BME280;20156;47.486;12.074;2023-03-19T07:43:26;94540.88;;;8.28;100.00
33859;BME280;20156;47.486;12.074;2023-03-19T07:45:51;94543.22;;;8.42;100.00
33859;BME280;20156;47.486;12.074;2023-03-19T07:48:17;94550.13;;;8.55;100.00
33859;BME280;20156;47.486;12.074;2023-03-19T07:50:43;94577.16;;;8.79;100.00
33859;BME280;20156;47.486;12.074;2023-03-19T07:53:08;94621.69;;;9.08;100.00
33859;BME280;20156;47.486;12.074;2023-03-19T07:55:34;94691.06;;;9.19;100.00
33859;BME280;20156;47.486;12.074;2023-03-19T07:57:59;94721.03;;;9.15;100.00
33859;BME280;20156;47.486;12.074;2023-03-19T08:00:24;94751.81;;;9.04;100.00
33859;BME280;20156;47.486;12.074;2023-03-19T08:02:50;94785.50;;;9.24;100.00
33859;BME280;20156;47.486;12.074;2023-03-19T08:05:15;94825.28;;;9.56;100.00
33859;BME280;20156;47.486;12.074;2023-03-19T08:07:41;94852.59;;;9.72;100.00
33859;BME280;20156;47.486;12.074;2023-03-19T08:10:07;94903.91;;;9.83;100.00
33859;BME280;20156;47.486;12.074;2023-03-19T08:12:33;94937.50;;;9.72;100.00
33859;BME280;20156;47.486;12.074;2023-03-19T08:15:04;94982.25;;;9.74;100.00
33859;BME280;20156;47.486;12.074;2023-03-19T08:17:30;94996.28;;;9.46;100.00
33859;BME280;20156;47.486;12.074;2023-03-19T08:19:58;94973.72;;;9.47;100.00
33859;BME280;20156;47.486;12.074;2023-03-19T08:22:23;94959.69;;;9.74;100.00
33859;BME280;20156;47.486;12.074;2023-03-19T08:24:49;95017.59;;;9.94;100.00
33859;BME280;20156;47.486;12.074;2023-03-19T08:27:14;95072.94;;;10.08;100.00
33859;BME280;20156;47.486;12.074;2023-03-19T08:29:40;95065.91;;;10.22;100.00
33859;BME280;20156;47.486;12.074;2023-03-19T08:32:05;95038.69;;;10.31;100.00
33859;BME280;20156;47.486;12.074;2023-03-19T08:34:32;95050.88;;;10.37;100.00
33859;BME280;20156;47.486;12.074;2023-03-19T08:36:57;95058.50;;;10.32;100.00
33859;BME280;20156;47.486;12.074;2023-03-19T08:39:22;95112.06;;;10.46;100.00
33859;BME280;20156;47.486;12.074;2023-03-19T08:41:48;95133.06;;;10.45;100.00
33859;BME280;20156;47.486;12.074;2023-03-19T08:44:13;95149.22;;;10.53;100.00
33859;BME280;20156;47.486;12.074;2023-03-19T08:46:39;95150.75;;;10.81;100.00
33859;BME280;20156;47.486;12.074;2023-03-19T08:49:06;95161.94;;;10.95;100.00
33859;BME280;20156;47.486;12.074;2023-03-19T08:51:32;95198.66;;;11.56;100.00
33859;BME280;20156;47.486;12.074;2023-03-19T08:53:57;95258.50;;;11.83;100.00
33859;BME280;20156;47.486;12.074;2023-03-19T08:56:23;95274.53;;;11.73;100.00
33859;BME280;20156;47.486;12.074;2023-03-19T08:58:48;95293.22;;;12.08;100.00
33859;BME280;20156;47.486;12.074;2023-03-19T09:01:14;95349.00;;;12.39;100.00
33859;BME280;20156;47.486;12.074;2023-03-19T09:03:41;95370.47;;;12.41;100.00
33859;BME280;20156;47.486;12.074;2023-03-19T09:06:08;95387.91;;;12.47;100.00
33859;BME280;20156;47.486;12.074;2023-03-19T09:08:35;95404.47;;;12.27;100.00
33859;BME280;20156;47.486;12.074;2023-03-19T09:11:02;95429.72;;;11.82;100.00
33859;BME280;20156;47.486;12.074;2023-03-19T09:13:28;95437.50;;;11.75;100.00
33859;BME280;20156;47.486;12.074;2023-03-19T09:15:53;95435.03;;;12.14;100.00
33859;BME280;20156;47.486;12.074;2023-03-19T09:18:20;95430.63;;;12.84;100.00
33859;BME280;20156;47.486;12.074;2023-03-19T09:20:48;95424.56;;;13.40;100.00
33859;BME280;20156;47.486;12.074;2023-03-19T09:23:14;95441.63;;;13.42;100.00
33859;BME280;20156;47.486;12.074;2023-03-19T09:25:40;95452.88;;;13.43;100.00
33859;BME280;20156;47.486;12.074;2023-03-19T09:28:05;95462.72;;;13.47;100.00
33859;BME280;20156;47.486;12.074;2023-03-19T09:30:31;95473.63;;;13.44;100.00
33859;BME280;20156;47.486;12.074;2023-03-19T09:32:56;95479.38;;;13.28;100.00
33859;BME280;20156;47.486;12.074;2023-03-19T09:35:21;95480.38;;;13.52;100.00
33859;BME280;20156;47.486;12.074;2023-03-19T09:37:47;95482.97;;;13.52;100.00
33859;BME280;20156;47.486;12.074;2023-03-19T09:40:22;95490.22;;;13.75;100.00
33859;BME280;20156;47.486;12.074;2023-03-19T09:45:23;95499.25;;;13.97;100.00
33859;BME280;20156;47.486;12.074;2023-03-19T09:48:11;95500.19;;;13.60;100.00
33859;BME280;20156;47.486;12.074;2023-03-19T09:50:48;95496.91;;;13.46;100.00
33859;BME280;20156;47.486;12.074;2023-03-19T09:56:04;95498.72;;;13.70;100.00
33859;BME280;20156;47.486;12.074;2023-03-19T09:58:34;95498.28;;;13.92;100.00
33859;BME280;20156;47.486;12.074;2023-03-19T10:01:00;95495.38;;;13.81;100.00
33859;BME280;20156;47.486;12.074;2023-03-19T10:03:44;95500.16;;;13.66;100.00
33859;BME280;20156;47.486;12.074;2023-03-19T10:16:57;95494.72;;;14.48;100.00
33859;BME280;20156;47.486;12.074;2023-03-19T10:19:43;95497.59;;;14.58;100.00
33859;BME280;20156;47.486;12.074;2023-03-19T10:22:17;95504.00;;;14.62;100.00
33859;BME280;20156;47.486;12.074;2023-03-19T10:24:46;95504.28;;;14.54;100.00
33859;BME280;20156;47.486;12.074;2023-03-19T10:27:16;95501.50;;;14.67;100.00
33859;BME280;20156;47.486;12.074;2023-03-19T10:29:42;95493.38;;;14.57;100.00
33859;BME280;20156;47.486;12.074;2023-03-19T10:32:36;95490.63;;;14.15;100.00
33859;BME280;20156;47.486;12.074;2023-03-19T10:35:17;95483.00;;;14.13;100.00
33859;BME280;20156;47.486;12.074;2023-03-19T10:37:43;95487.25;;;14.26;100.00
33859;BME280;20156;47.486;12.074;2023-03-19T10:40:47;95472.44;;;14.20;100.00
33859;BME280;20156;47.486;12.074;2023-03-19T10:43:21;95473.44;;;14.37;100.00
33859;BME280;20156;47.486;12.074;2023-03-19T10:45:49;95464.66;;;14.50;100.00
33859;BME280;20156;47.486;12.074;2023-03-19T10:48:16;95469.69;;;14.33;100.00
33859;BME280;20156;47.486;12.074;2023-03-19T10:51:09;95474.25;;;14.38;100.00
33859;BME280;20156;47.486;12.074;2023-03-19T10:53:37;95473.38;;;14.44;100.00
33859;BME280;20156;47.486;12.074;2023-03-19T10:56:23;95460.72;;;14.41;100.00
33859;BME280;20156;47.486;12.074;2023-03-19T10:59:02;95471.09;;;14.66;100.00
33859;BME280;20156;47.486;12.074;2023-03-19T11:01:32;95454.22;;;14.92;100.00
33859;BME280;20156;47.486;12.074;2023-03-19T11:03:59;95447.72;;;14.83;100.00
33859;BME280;20156;47.486;12.074;2023-03-19T11:06:35;95444.38;;;15.17;100.00
33859;BME280;20156;47.486;12.074;2023-03-19T11:14:05;95451.59;;;14.92;100.00
33859;BME280;20156;47.486;12.074;2023-03-19T11:16:31;95447.13;;;14.51;100.00
33859;BME280;20156;47.486;12.074;2023-03-19T11:18:57;95455.34;;;14.54;100.00
33859;BME280;20156;47.486;12.074;2023-03-19T11:21:29;95448.00;;;14.74;100.00
33859;BME280;20156;47.486;12.074;2023-03-19T11:24:01;95434.84;;;14.93;100.00
33859;BME280;20156;47.486;12.074;2023-03-19T11:26:28;95433.75;;;15.00;100.00
33859;BME280;20156;47.486;12.074;2023-03-19T11:29:04;95425.75;;;15.07;100.00
33859;BME280;20156;47.486;12.074;2023-03-19T11:31:36;95429.88;;;15.26;100.00
33859;BME280;20156;47.486;12.074;2023-03-19T11:39:27;95414.16;;;15.15;100.00
33859;BME280;20156;47.486;12.074;2023-03-19T11:47:41;95384.09;;;15.17;100.00
33859;BME280;20156;47.486;12.074;2023-03-19T11:53:41;95346.34;;;15.65;100.00
33859;BME280;20156;47.486;12.074;2023-03-19T11:56:22;95328.72;;;15.89;100.00
33859;BME280;20156;47.486;12.074;2023-03-19T12:10:19;95249.00;;;16.07;100.00
33859;BME280;20156;47.486;12.074;2023-03-19T12:12:58;95202.19;;;15.58;100.00
33859;BME280;20156;47.486;12.074;2023-03-19T12:18:28;95185.38;;;15.83;100.00
33859;BME280;20156;47.486;12.074;2023-03-19T12:24:43;95166.75;;;15.84;100.00
33859;BME280;20156;47.486;12.074;2023-03-19T12:27:24;95165.09;;;15.95;100.00
33859;BME280;20156;47.486;12.074;2023-03-19T12:35:17;95140.66;;;15.78;100.00
33859;BME280;20156;47.486;12.074;2023-03-19T12:38:02;95104.16;;;16.10;100.00
33859;BME280;20156;47.486;12.074;2023-03-19T12:40:54;95114.91;;;15.75;100.00
33859;BME280;20156;47.486;12.074;2023-03-19T12:43:45;95119.84;;;16.21;100.00
33859;BME280;20156;47.486;12.074;2023-03-19T12:46:45;95130.28;;;15.54;100.00
33859;BME280;20156;47.486;12.074;2023-03-19T12:49:22;95125.34;;;15.58;100.00
33859;BME280;20156;47.486;12.074;2023-03-19T12:51:53;95109.41;;;15.76;100.00
33859;BME280;20156;47.486;12.074;2023-03-19T12:54:27;95108.63;;;15.30;100.00
33859;BME280;20156;47.486;12.074;2023-03-19T13:02:08;95120.16;;;15.75;100.00
33859;BME280;20156;47.486;12.074;2023-03-19T13:04:39;95106.66;;;16.00;100.00
33859;BME280;20156;47.486;12.074;2023-03-19T13:07:19;95129.31;;;15.89;100.00
33859;BME280;20156;47.486;12.074;2023-03-19T13:09:57;95118.84;;;15.60;100.00
33859;BME280;20156;47.486;12.074;2023-03-19T13:12:27;95100.06;;;15.80;100.00
33859;BME280;20156;47.486;12.074;2023-03-19T13:14:57;95099.97;;;15.92;100.00
33859;BME280;20156;47.486;12.074;2023-03-19T13:20:00;95063.31;;;15.97;100.00
33859;BME280;20156;47.486;12.074;2023-03-19T13:22:34;95060.75;;;16.19;100.00
33859;BME280;20156;47.486;12.074;2023-03-19T13:25:02;95054.50;;;15.86;100.00
33859;BME280;20156;47.486;12.074;2023-03-19T13:27:32;95046.69;;;15.91;100.00
33859;BME280;20156;47.486;12.074;2023-03-19T13:32:44;95051.94;;;15.75;100.00
33859;BME280;20156;47.486;12.074;2023-03-19T13:38:09;95059.91;;;15.80;100.00
33859;BME280;20156;47.486;12.074;2023-03-19T13:43:20;95046.06;;;16.01;100.00
33859;BME280;20156;47.486;12.074;2023-03-19T13:45:51;95033.31;;;16.10;100.00
33859;BME280;20156;47.486;12.074;2023-03-19T13:48:34;95046.22;;;15.78;100.00
33859;BME280;20156;47.486;12.074;2023-03-19T13:51:43;95049.78;;;16.05;100.00
33859;BME280;20156;47.486;12.074;2023-03-19T13:54:06;95033.25;;;15.88;100.00
33859;BME280;20156;47.486;12.074;2023-03-19T13:59:25;94979.13;;;16.20;100.00
33859;BME280;20156;47.486;12.074;2023-03-19T14:01:52;94979.56;;;15.95;100.00
33859;BME280;20156;47.486;12.074;2023-03-19T14:07:11;94988.75;;;15.76;100.00
33859;BME280;20156;47.486;12.074;2023-03-19T14:09:46;94978.13;;;16.05;100.00
33859;BME280;20156;47.486;12.074;2023-03-19T14:17:15;94953.22;;;16.07;100.00
33859;BME280;20156;47.486;12.074;2023-03-19T14:19:44;94956.69;;;15.91;100.00
33859;BME280;20156;47.486;12.074;2023-03-19T14:22:20;94960.31;;;16.07;100.00
33859;BME280;20156;47.486;12.074;2023-03-19T14:27:31;94952.25;;;15.91;100.00